^^
Meteo Knjazevac Station Historical Data
Daily Summary for September 30, 2021 Units:  Both    English   Metric
Daily Weekly Monthly Yearly Custom
  High: Low: Average:
Temperature: 40.3 °F /  4.6 °C 31.3 °F /  -0.4 °C 34.9 °F /  1.6 °C
Dew Point: 38.5 °F /  3.6 °C 29.8 °F /  -1.2 °C 33.6 °F /  0.9 °C
Humidity: 99% 91% 95%
Wind Speed: 3mph /  4.8km/h - 0.8mph /  1.3km/h
Wind Gust: 5mph /  8km/h - -
Wind- - West
Pressure: 30.33 in /  1027 hPa 30.29 in /  1025.6 hPa -
Precipitation: 0.00 in /  0 mm    
Historical Graphs
 
 
Tabular Data for September 30, 2021
Time Temperature Dew Point Pressure Wind Wind Speed Wind Gust Humidity Rainfall Rate (Hourly) solar Conditions
00:00 40.3 °F /  4.6 °C 38.4 °F /  3.6 °C 30.29in /  1025.6hPa Calm   2mph /  3.2km/h 93% 0.00in /  0mm 0 W/m2
00:10 40.1 °F /  4.5 °C 38.5 °F /  3.6 °C 30.29in /  1025.6hPa Calm   2mph /  3.2km/h 94% 0.00in /  0mm 0 W/m2
00:20 40.1 °F /  4.5 °C 38.2 °F /  3.4 °C 30.29in /  1025.6hPa NE 1mph /  1.6km/h 3mph /  4.8km/h 93% 0.00in /  0mm 0 W/m2
00:30 39.7 °F /  4.3 °C 37.9 °F /  3.3 °C 30.29in /  1025.6hPa Calm   1mph /  1.6km/h 93% 0.00in /  0mm 0 W/m2
00:40 39.2 °F /  4 °C 37.4 °F /  3 °C 30.30in /  1026hPa Calm   3mph /  4.8km/h 93% 0.00in /  0mm 0 W/m2
00:50 38.8 °F /  3.8 °C 37 °F /  2.8 °C 30.30in /  1026hPa Calm   3mph /  4.8km/h 93% 0.00in /  0mm 0 W/m2
01:00 38.7 °F /  3.7 °C 37.1 °F /  2.8 °C 30.30in /  1026hPa Calm   2mph /  3.2km/h 94% 0.00in /  0mm 0 W/m2
01:10 38.5 °F /  3.6 °C 36.9 °F /  2.7 °C 30.30in /  1026hPa NNE 2mph /  3.2km/h 3mph /  4.8km/h 94% 0.00in /  0mm 0 W/m2
01:20 38.3 °F /  3.5 °C 36.7 °F /  2.6 °C 30.30in /  1026hPa Calm   3mph /  4.8km/h 94% 0.00in /  0mm 0 W/m2
01:30 37.8 °F /  3.2 °C 35.9 °F /  2.2 °C 30.30in /  1026hPa Calm   1mph /  1.6km/h 93% 0.00in /  0mm 0 W/m2
01:40 37.2 °F /  2.9 °C 34.8 °F /  1.6 °C 30.30in /  1026hPa NW 1mph /  1.6km/h 2mph /  3.2km/h 91% 0.00in /  0mm 0 W/m2
01:50 36.7 °F /  2.6 °C 34.9 °F /  1.6 °C 30.30in /  1026hPa Calm   2mph /  3.2km/h 93% 0.00in /  0mm 0 W/m2
02:00 36.5 °F /  2.5 °C 34.7 °F /  1.5 °C 30.30in /  1026hPa Calm   2mph /  3.2km/h 93% 0.00in /  0mm 0 W/m2
02:10 36.2 °F /  2.3 °C 34.3 °F /  1.3 °C 30.30in /  1026hPa Calm   2mph /  3.2km/h 93% 0.00in /  0mm 0 W/m2
02:20 35.8 °F /  2.1 °C 33.4 °F /  0.8 °C 30.30in /  1026hPa Calm   1mph /  1.6km/h 91% 0.00in /  0mm 0 W/m2
02:30 35.4 °F /  1.9 °C 33.1 °F /  0.6 °C 30.30in /  1026hPa Calm   2mph /  3.2km/h 91% 0.00in /  0mm 0 W/m2
02:40 35.1 °F /  1.7 °C 33.2 °F /  0.7 °C 30.31in /  1026.3hPa WNW 2mph /  3.2km/h 4mph /  6.4km/h 93% 0.00in /  0mm 0 W/m2
02:50 35.1 °F /  1.7 °C 33.5 °F /  0.8 °C 30.31in /  1026.3hPa Calm   4mph /  6.4km/h 94% 0.00in /  0mm 0 W/m2
03:00 34.7 °F /  1.5 °C 32.9 °F /  0.5 °C 30.31in /  1026.3hPa Calm   1mph /  1.6km/h 93% 0.00in /  0mm 0 W/m2
03:10 34.3 °F /  1.3 °C 32.5 °F /  0.3 °C 30.31in /  1026.3hPa Calm   1mph /  1.6km/h 93% 0.00in /  0mm 0 W/m2
03:20 34 °F /  1.1 °C 32.2 °F /  0.1 °C 30.31in /  1026.3hPa NW 1mph /  1.6km/h 2mph /  3.2km/h 93% 0.00in /  0mm 0 W/m2
03:30 34 °F /  1.1 °C 32.7 °F /  0.4 °C 30.31in /  1026.3hPa NW 2mph /  3.2km/h 3mph /  4.8km/h 95% 0.00in /  0mm 0 W/m2
03:40 33.8 °F /  1 °C 32.3 °F /  0.2 °C 30.31in /  1026.3hPa NW 1mph /  1.6km/h 3mph /  4.8km/h 94% 0.00in /  0mm 0 W/m2
03:50 33.6 °F /  0.9 °C 32.4 °F /  0.2 °C 30.31in /  1026.3hPa Calm   3mph /  4.8km/h 95% 0.00in /  0mm 0 W/m2
04:00 33.3 °F /  0.7 °C 31.7 °F /  -0.2 °C 30.31in /  1026.3hPa Calm   2mph /  3.2km/h 94% 0.00in /  0mm 0 W/m2
04:10 33.1 °F /  0.6 °C 31.5 °F /  -0.3 °C 30.31in /  1026.3hPa Calm   2mph /  3.2km/h 94% 0.00in /  0mm 0 W/m2
04:20 32.9 °F /  0.5 °C 31.4 °F /  -0.3 °C 30.31in /  1026.3hPa NW 1mph /  1.6km/h 2mph /  3.2km/h 94% 0.00in /  0mm 0 W/m2
04:30 32.5 °F /  0.3 °C 31 °F /  -0.6 °C 30.31in /  1026.3hPa NW 1mph /  1.6km/h 2mph /  3.2km/h 94% 0.00in /  0mm 0 W/m2
04:40 32.2 °F /  0.1 °C 30.6 °F /  -0.8 °C 30.31in /  1026.3hPa NNW 2mph /  3.2km/h 3mph /  4.8km/h 94% 0.00in /  0mm 0 W/m2
04:50 32.2 °F /  0.1 °C 30.6 °F /  -0.8 °C 30.31in /  1026.3hPa Calm   2mph /  3.2km/h 94% 0.00in /  0mm 0 W/m2
05:00 31.8 °F /  -0.1 °C 30.3 °F /  -0.9 °C 30.31in /  1026.3hPa Calm   2mph /  3.2km/h 94% 0.00in /  0mm 0 W/m2
05:10 31.5 °F /  -0.3 °C 30 °F /  -1.1 °C 30.31in /  1026.3hPa Calm   2mph /  3.2km/h 94% 0.00in /  0mm 0 W/m2
05:20 31.5 °F /  -0.3 °C 29.9 °F /  -1.2 °C 30.31in /  1026.3hPa Calm   2mph /  3.2km/h 94% 0.00in /  0mm 0 W/m2
05:30 31.3 °F /  -0.4 °C 29.8 °F /  -1.2 °C 30.32in /  1026.6hPa NW 1mph /  1.6km/h 2mph /  3.2km/h 94% 0.00in /  0mm 0 W/m2
05:40 31.3 °F /  -0.4 °C 30 °F /  -1.1 °C 30.32in /  1026.6hPa Calm   2mph /  3.2km/h 95% 0.00in /  0mm 0 W/m2
05:50 31.6 °F /  -0.2 °C 30.6 °F /  -0.8 °C 30.32in /  1026.6hPa NW 1mph /  1.6km/h 2mph /  3.2km/h 96% 0.00in /  0mm 0 W/m2
06:00 31.8 °F /  -0.1 °C 30.8 °F /  -0.7 °C 30.32in /  1026.6hPa WNW 2mph /  3.2km/h 4mph /  6.4km/h 96% 0.00in /  0mm 0 W/m2
06:10 32 °F /  0 °C 31.5 °F /  -0.3 °C 30.32in /  1026.6hPa WNW 2mph /  3.2km/h 4mph /  6.4km/h 98% 0.00in /  0mm 0 W/m2
06:20 32.4 °F /  0.2 °C 31.9 °F /  -0.1 °C 30.32in /  1026.6hPa WNW 2mph /  3.2km/h 4mph /  6.4km/h 98% 0.00in /  0mm 0 W/m2
06:30 32.7 °F /  0.4 °C 32.2 °F /  0.1 °C 30.31in /  1026.3hPa Calm   4mph /  6.4km/h 98% 0.00in /  0mm 0 W/m2
06:40 32.7 °F /  0.4 °C 32.2 °F /  0.1 °C 30.31in /  1026.3hPa WNW 1mph /  1.6km/h 2mph /  3.2km/h 98% 0.00in /  0mm 0 W/m2
06:50 32.9 °F /  0.5 °C 31.9 °F /  -0.1 °C 30.31in /  1026.3hPa WNW 1mph /  1.6km/h 2mph /  3.2km/h 96% 0.00in /  0mm 0 W/m2
07:00 33.1 °F /  0.6 °C 32.6 °F /  0.3 °C 30.31in /  1026.3hPa West 2mph /  3.2km/h 3mph /  4.8km/h 98% 0.00in /  0mm 0 W/m2
07:10 33.4 °F /  0.8 °C 32.9 °F /  0.5 °C 30.31in /  1026.3hPa WNW 2mph /  3.2km/h 3mph /  4.8km/h 98% 0.00in /  0mm 2 W/m2
07:20 33.8 °F /  1 °C 33.5 °F /  0.8 °C 30.31in /  1026.3hPa WNW 2mph /  3.2km/h 5mph /  8km/h 99% 0.00in /  0mm 5 W/m2
07:30 34.1 °F /  1.2 °C 33.6 °F /  0.9 °C 30.32in /  1026.6hPa WNW 2mph /  3.2km/h 3mph /  4.8km/h 98% 0.00in /  0mm 9 W/m2
07:40 34.2 °F /  1.2 °C 33.7 °F /  0.9 °C 30.32in /  1026.6hPa WNW 1mph /  1.6km/h 3mph /  4.8km/h 98% 0.00in /  0mm 13 W/m2
07:50 34.3 °F /  1.3 °C 33.8 °F /  1 °C 30.32in /  1026.6hPa WNW 3mph /  4.8km/h 5mph /  8km/h 98% 0.00in /  0mm 17 W/m2
08:00 34.5 °F /  1.4 °C 34 °F /  1.1 °C 30.32in /  1026.6hPa WNW 2mph /  3.2km/h 4mph /  6.4km/h 98% 0.00in /  0mm 21 W/m2
08:10 34.7 °F /  1.5 °C 34.2 °F /  1.2 °C 30.32in /  1026.6hPa WNW 2mph /  3.2km/h 3mph /  4.8km/h 98% 0.00in /  0mm 27 W/m2
08:20 35.1 °F /  1.7 °C 34.6 °F /  1.4 °C 30.32in /  1026.6hPa WNW 1mph /  1.6km/h 3mph /  4.8km/h 98% 0.00in /  0mm 34 W/m2
08:30 35.6 °F /  2 °C 35.3 °F /  1.8 °C 30.32in /  1026.6hPa West 1mph /  1.6km/h 2mph /  3.2km/h 99% 0.00in /  0mm 42 W/m2
08:40 35.8 °F /  2.1 °C 35.5 °F /  1.9 °C 30.32in /  1026.6hPa West 1mph /  1.6km/h 2mph /  3.2km/h 99% 0.00in /  0mm 46 W/m2
08:50 36.3 °F /  2.4 °C 36 °F /  2.2 °C 30.32in /  1026.6hPa NW 1mph /  1.6km/h 2mph /  3.2km/h 99% 0.00in /  0mm 54 W/m2
09:00 36.7 °F /  2.6 °C 36.4 °F /  2.4 °C 30.32in /  1026.6hPa Calm   2mph /  3.2km/h 99% 0.00in /  0mm 60 W/m2
09:10 37 °F /  2.8 °C 36.8 °F /  2.7 °C 30.33in /  1027hPa Calm   2mph /  3.2km/h 99% 0.00in /  0mm 69 W/m2
Knjazevac, Serbia
Compliments of Weather Underground - 2 mb